Bareilly — A8KG7 — position and weather

sailwx.info

Track history (hours):
 
Tides and Currents Weather Stations Pressure Air Temp Water Temp Dewpoint Dewpoint Depression Visibility Wind Speed Wind Dir Waves Ship Positions

Bareilly

Last reported at 2016-Oct-27 09:26 UTC. Time now 2016-Dec-02 22:14 UTC.
Position N 01°47' E 102°37'.
Warning: this ship's position is 36 days out of date.

Length 243 m; draft 12.7 m.

Type: Tanker. MMSI: 636013054.

Date/timePositionNaut miles runAvg speedWind from/ knotsBaromVisibWave heightAir tempDewpointWater temp
2016-Oct-27 09:26N 01°47' E 102°37'9010.1
2016-Oct-27 00:33N 01°16' E 104°01'  
2016-Oct-20 11:30N 01°14' E 103°58'11 9.2
2016-Oct-20 10:18N 01°14' E 103°47'2 3.1
2016-Oct-20 09:33N 01°14' E 103°45'7 0.2
2016-Oct-18 18:33N 01°13' E 103°51'4 0.9
2016-Oct-18 14:19N 01°15' E 103°55'0 0.1
2016-Oct-18 10:04N 01°15' E 103°55'0 0.0
2016-Oct-18 09:19N 01°15' E 103°55'0 0.0
2016-Oct-18 07:28N 01°15' E 103°55'0 0.0
2016-Oct-18 06:22N 01°15' E 103°55'0 0.1
2016-Oct-18 02:31N 01°15' E 103°55'0 0.0
2016-Oct-18 01:28N 01°15' E 103°55'0 0.0
2016-Oct-17 19:25N 01°15' E 103°55'0 0.1
2016-Oct-17 16:16N 01°15' E 103°55'0 0.0
2016-Oct-17 15:31N 01°15' E 103°55'0 0.0
2016-Oct-17 13:28N 01°15' E 103°55'0 0.1
2016-Oct-17 12:04N 01°15' E 103°55'0 0.1
2016-Oct-17 11:31N 01°15' E 103°55'  
Track history (hours):
 
Tides and Currents Weather Stations Pressure Air Temp Water Temp Dewpoint Dewpoint Depression Visibility Wind Speed Wind Dir Waves Ship Positions

Bareilly

Last reported at 2016-Oct-27 09:26 UTC. Time now 2016-Dec-02 22:14 UTC.
Position N 01°47' E 102°37'.
Warning: this ship's position is 36 days out of date.

Length 243 m; draft 12.7 m.

Type: Tanker. MMSI: 636013054.

Date/timePositionNaut miles runAvg speedWind from/ knotsBaromVisibWave heightAir tempDewpointWater temp
2016-Oct-27 09:26N 01°47' E 102°37'9010.1
2016-Oct-27 00:33N 01°16' E 104°01'  
2016-Oct-20 11:30N 01°14' E 103°58'11 9.2
2016-Oct-20 10:18N 01°14' E 103°47'2 3.1
2016-Oct-20 09:33N 01°14' E 103°45'7 0.2
2016-Oct-18 18:33N 01°13' E 103°51'4 0.9
2016-Oct-18 14:19N 01°15' E 103°55'0 0.1
2016-Oct-18 10:04N 01°15' E 103°55'0 0.0
2016-Oct-18 09:19N 01°15' E 103°55'0 0.0
2016-Oct-18 07:28N 01°15' E 103°55'0 0.0
2016-Oct-18 06:22N 01°15' E 103°55'0 0.1
2016-Oct-18 02:31N 01°15' E 103°55'0 0.0
2016-Oct-18 01:28N 01°15' E 103°55'0 0.0
2016-Oct-17 19:25N 01°15' E 103°55'0 0.1
2016-Oct-17 16:16N 01°15' E 103°55'0 0.0
2016-Oct-17 15:31N 01°15' E 103°55'0 0.0
2016-Oct-17 13:28N 01°15' E 103°55'0 0.1
2016-Oct-17 12:04N 01°15' E 103°55'0 0.1
2016-Oct-17 11:31N 01°15' E 103°55'  

Dump ship's entire track history